Time;durP1;ratioP1;P1;durP2;ratioP2;P2;SDS_P1;SDS_P2;PMS_P1;PMS_P2;Temp;Humidity;BMP_temperature;BMP_pressure;BME280_temperature;BME280_humidity;BME280_pressure;Samples;Min_cycle;Max_cycle;Signal;HPM_P1;HPM_P2
2021/12/30 00:03:22;;;;;;;0.22;0.22;;;;;;;;;;10294511;23;20143;-75
2021/12/30 00:08:27;;;;;;;0.47;0.47;;;;;;;;;;10230303;28;20043;-73
2021/12/30 00:13:30;;;;;;;0.08;0.08;;;;;;;;;;10229395;29;20452;-74
2021/12/30 00:18:33;;;;;;;1.25;0.40;;;;;;;;;;10226352;29;20372;-73
2021/12/30 00:23:37;;;;;;;0.40;0.40;;;;;;;;;;10224741;28;20031;-72
2021/12/30 00:28:40;;;;;;;0.22;0.22;;;;;;;;;;10233131;28;20042;-73
2021/12/30 00:33:44;;;;;;;0.20;0.20;;;;;;;;;;10242684;28;20035;-73
2021/12/30 00:38:48;;;;;;;0.45;0.38;;;;;;;;;;10224487;29;20043;-73
2021/12/30 00:43:51;;;;;;;0.47;0.40;;;;;;;;;;10220106;29;20032;-73
2021/12/30 00:48:55;;;;;;;0.20;0.20;;;;;;;;;;10230546;29;20047;-73
2021/12/30 00:53:59;;;;;;;1.07;0.23;;;;;;;;;;10226406;29;20039;-73
2021/12/30 00:59:02;;;;;;;0.10;0.10;;;;;;;;;;10227229;28;20055;-73
2021/12/30 01:04:05;;;;;;;0.30;0.30;;;;;;;;;;10214705;29;20051;-72
2021/12/30 01:09:10;;;;;;;1.02;0.22;;;;;;;;;;10222234;28;20146;-73
2021/12/30 01:14:18;;;;;;;0.95;0.40;;;;;;;;;;10219392;29;20092;-73
2021/12/30 01:19:42;;;;;;;0.20;0.20;;;;;;;;;;10223422;28;20079;-73
2021/12/30 01:24:45;;;;;;;;;;;;;;;;;;10213095;29;20563;-73
2021/12/30 01:29:50;;;;;;;0.30;0.30;;;;;;;;;;10207230;29;19923;-74
2021/12/30 01:34:54;;;;;;;0.30;0.30;;;;;;;;;;10218050;29;20050;-74
2021/12/30 01:39:57;;;;;;;0.10;0.10;;;;;;;;;;10238677;28;20074;-75
2021/12/30 01:45:01;;;;;;;0.10;0.10;;;;;;;;;;10229194;29;20110;-74
2021/12/30 01:50:05;;;;;;;0.30;0.30;;;;;;;;;;10229445;29;20522;-73
2021/12/30 01:55:08;;;;;;;;;;;;;;;;;;10219487;29;20119;-73
2021/12/30 02:00:15;;;;;;;0.10;0.10;;;;;;;;;;10218341;29;19957;-73
2021/12/30 02:05:18;;;;;;;0.10;0.10;;;;;;;;;;10226016;29;20036;-73
2021/12/30 02:10:21;;;;;;;0.30;0.17;;;;;;;;;;10242930;23;20051;-74
2021/12/30 02:15:26;;;;;;;0.20;0.20;;;;;;;;;;10231881;28;20649;-75
2021/12/30 02:20:45;;;;;;;0.30;0.30;;;;;;;;;;10246484;28;20045;-76
2021/12/30 02:25:49;;;;;;;0.10;0.10;;;;;;;;;;10237896;28;20043;-75
2021/12/30 02:30:52;;;;;;;;;;;;;;;;;;10238331;28;20059;-76
2021/12/30 02:35:57;;;;;;;0.30;0.30;;;;;;;;;;10235074;28;20523;-77
2021/12/30 02:41:01;;;;;;;0.22;0.20;;;;;;;;;;10235041;28;20036;-76
2021/12/30 02:46:04;;;;;;;0.40;0.20;;;;;;;;;;10234523;28;20553;-76
2021/12/30 02:51:10;;;;;;;0.10;0.10;;;;;;;;;;10232975;28;20134;-76
2021/12/30 02:56:13;;;;;;;0.65;0.17;;;;;;;;;;10234721;28;20043;-76
2021/12/30 03:01:17;;;;;;;0.10;0.10;;;;;;;;;;10235213;28;20070;-76
2021/12/30 03:06:22;;;;;;;0.47;0.40;;;;;;;;;;10232112;28;20040;-77
2021/12/30 03:11:26;;;;;;;0.28;0.28;;;;;;;;;;10231440;28;20031;-75
2021/12/30 03:16:37;;;;;;;0.10;0.10;;;;;;;;;;10232423;29;20087;-75
2021/12/30 03:21:42;;;;;;;0.35;0.28;;;;;;;;;;10224151;28;20035;-75
2021/12/30 03:26:48;;;;;;;0.55;0.20;;;;;;;;;;10235931;28;20043;-75
2021/12/30 03:31:55;;;;;;;0.60;0.30;;;;;;;;;;10240116;28;20098;-76
2021/12/30 03:36:59;;;;;;;0.10;0.07;;;;;;;;;;10240071;28;20399;-73
2021/12/30 03:42:02;;;;;;;0.20;0.20;;;;;;;;;;10236623;28;20496;-75
2021/12/30 03:47:06;;;;;;;0.13;0.13;;;;;;;;;;10242388;28;20122;-74
2021/12/30 03:52:10;;;;;;;0.10;0.10;;;;;;;;;;10240329;28;20050;-74
2021/12/30 03:57:13;;;;;;;0.15;0.10;;;;;;;;;;10229397;28;20050;-75
2021/12/30 04:02:16;;;;;;;0.47;0.20;;;;;;;;;;10237272;29;20035;-76
2021/12/30 04:07:20;;;;;;;0.22;0.10;;;;;;;;;;10242043;28;20143;-75
2021/12/30 04:12:23;;;;;;;0.20;0.20;;;;;;;;;;10233437;28;20047;-75
2021/12/30 04:17:26;;;;;;;0.30;0.30;;;;;;;;;;10230525;29;20134;-75
2021/12/30 04:22:30;;;;;;;0.20;0.20;;;;;;;;;;10236249;28;20056;-77
2021/12/30 04:27:34;;;;;;;0.38;0.38;;;;;;;;;;10240040;28;20039;-75
2021/12/30 04:32:37;;;;;;;0.40;0.20;;;;;;;;;;10240622;28;20114;-76
2021/12/30 04:37:41;;;;;;;0.25;0.20;;;;;;;;;;10239522;28;20547;-75
2021/12/30 04:42:44;;;;;;;1.40;0.30;;;;;;;;;;10239250;29;20711;-75
2021/12/30 04:47:47;;;;;;;0.28;0.28;;;;;;;;;;10240685;28;20097;-75
2021/12/30 04:52:51;;;;;;;0.20;0.20;;;;;;;;;;10237228;29;20031;-75
2021/12/30 04:57:54;;;;;;;0.17;0.10;;;;;;;;;;10235671;29;20551;-75
2021/12/30 05:03:08;;;;;;;0.40;0.40;;;;;;;;;;10242970;28;20043;-77
2021/12/30 05:08:13;;;;;;;0.20;0.20;;;;;;;;;;10239814;29;20467;-74
2021/12/30 05:13:16;;;;;;;0.52;0.43;;;;;;;;;;10239668;28;20126;-76
2021/12/30 05:18:23;;;;;;;0.68;0.40;;;;;;;;;;10239002;28;20039;-76
2021/12/30 05:23:28;;;;;;;0.28;0.28;;;;;;;;;;10230942;28;20032;-75
2021/12/30 05:28:31;;;;;;;0.30;0.20;;;;;;;;;;10230037;29;20050;-74
2021/12/30 05:33:34;;;;;;;0.40;0.40;;;;;;;;;;10235812;29;20034;-76
2021/12/30 05:38:38;;;;;;;1.75;1.05;;;;;;;;;;10236870;29;20050;-75
2021/12/30 05:43:41;;;;;;;0.10;0.10;;;;;;;;;;10239465;28;20075;-76
2021/12/30 05:48:44;;;;;;;0.68;0.40;;;;;;;;;;10239190;28;20348;-78
2021/12/30 05:53:48;;;;;;;1.33;0.35;;;;;;;;;;10236210;28;20123;-77
2021/12/30 05:58:51;;;;;;;1.00;0.45;;;;;;;;;;10236595;28;20047;-76
2021/12/30 06:03:54;;;;;;;0.30;0.30;;;;;;;;;;10235115;29;20089;-76
2021/12/30 06:08:59;;;;;;;0.20;0.20;;;;;;;;;;10235471;28;20372;-76
2021/12/30 06:14:02;;;;;;;1.05;0.57;;;;;;;;;;10234700;29;20036;-77
2021/12/30 06:19:04;;;;;;;0.30;0.30;;;;;;;;;;10232885;28;20066;-76
2021/12/30 06:24:09;;;;;;;0.40;0.40;;;;;;;;;;10228776;28;20104;-76
2021/12/30 06:29:11;;;;;;;0.52;0.47;;;;;;;;;;10235027;29;20059;-76
2021/12/30 06:34:15;;;;;;;0.35;0.25;;;;;;;;;;10230911;28;20194;-77
2021/12/30 06:39:19;;;;;;;1.80;0.32;;;;;;;;;;10237281;28;20377;-77
2021/12/30 06:44:22;;;;;;;0.32;0.32;;;;;;;;;;10234147;29;20130;-75
2021/12/30 06:49:26;;;;;;;0.30;0.30;;;;;;;;;;10233613;28;20058;-75
2021/12/30 06:54:30;;;;;;;0.60;0.60;;;;;;;;;;10232491;29;20036;-77
2021/12/30 06:59:35;;;;;;;1.25;0.50;;;;;;;;;;10243649;28;20149;-77
2021/12/30 07:04:38;;;;;;;0.98;0.43;;;;;;;;;;10229639;28;20049;-75
2021/12/30 07:09:42;;;;;;;0.77;0.60;;;;;;;;;;10246602;28;20067;-74
2021/12/30 07:14:45;;;;;;;1.67;0.40;;;;;;;;;;10231112;29;20070;-77
2021/12/30 07:19:48;;;;;;;0.95;0.55;;;;;;;;;;10236755;28;20035;-78
2021/12/30 07:24:52;;;;;;;0.63;0.40;;;;;;;;;;10234428;28;20046;-78
2021/12/30 07:29:56;;;;;;;0.93;0.50;;;;;;;;;;10231444;28;20043;-78
2021/12/30 07:34:59;;;;;;;0.30;0.22;;;;;;;;;;10234214;28;20154;-79
2021/12/30 07:40:04;;;;;;;0.52;0.50;;;;;;;;;;10236516;28;20043;-80
2021/12/30 07:45:09;;;;;;;0.82;0.63;;;;;;;;;;10235551;29;20035;-79
2021/12/30 07:50:12;;;;;;;0.30;0.30;;;;;;;;;;10239021;28;20063;-80
2021/12/30 07:55:17;;;;;;;0.68;0.43;;;;;;;;;;10239884;28;20031;-81
2021/12/30 08:00:19;;;;;;;0.32;0.32;;;;;;;;;;10235923;28;20032;-80
2021/12/30 08:05:22;;;;;;;2.30;0.38;;;;;;;;;;10233916;28;20071;-79
2021/12/30 08:10:28;;;;;;;0.30;0.30;;;;;;;;;;10232171;29;20363;-77
2021/12/30 08:15:31;;;;;;;0.43;0.30;;;;;;;;;;10268568;23;20051;-69
2021/12/30 08:20:33;;;;;;;0.30;0.20;;;;;;;;;;10262081;28;20039;-69
2021/12/30 08:25:38;;;;;;;0.75;0.38;;;;;;;;;;10277437;28;20428;-71
2021/12/30 08:30:41;;;;;;;2.45;0.50;;;;;;;;;;10259415;28;20480;-72
2021/12/30 08:35:46;;;;;;;0.30;0.28;;;;;;;;;;10264204;28;20407;-69
2021/12/30 08:40:51;;;;;;;0.35;0.32;;;;;;;;;;10258518;28;20566;-69
2021/12/30 08:45:54;;;;;;;0.20;0.20;;;;;;;;;;10259377;28;20039;-69
2021/12/30 08:50:57;;;;;;;0.40;0.27;;;;;;;;;;10260531;28;20066;-68
2021/12/30 08:56:01;;;;;;;1.30;0.23;;;;;;;;;;10253163;28;20046;-69
2021/12/30 09:01:04;;;;;;;0.30;0.30;;;;;;;;;;10255388;28;20050;-68
2021/12/30 09:06:07;;;;;;;0.38;0.38;;;;;;;;;;10265493;28;20040;-69
2021/12/30 09:11:12;;;;;;;0.97;0.30;;;;;;;;;;10265220;28;20054;-69
2021/12/30 09:16:15;;;;;;;0.20;0.20;;;;;;;;;;10273963;28;20039;-69
2021/12/30 09:21:18;;;;;;;1.77;0.90;;;;;;;;;;10252931;28;20046;-70
2021/12/30 09:26:23;;;;;;;0.52;0.52;;;;;;;;;;10257143;28;20039;-68
2021/12/30 09:31:28;;;;;;;0.68;0.60;;;;;;;;;;10254863;28;20707;-68
2021/12/30 09:36:31;;;;;;;0.45;0.45;;;;;;;;;;10256435;28;20465;-67
2021/12/30 09:41:37;;;;;;;0.60;0.50;;;;;;;;;;10254709;28;20046;-69
2021/12/30 09:46:41;;;;;;;0.63;0.63;;;;;;;;;;10255174;28;20042;-70
2021/12/30 09:51:44;;;;;;;0.40;0.40;;;;;;;;;;10259178;28;20149;-68
2021/12/30 09:56:49;;;;;;;0.20;0.20;;;;;;;;;;10256816;28;20034;-68
2021/12/30 10:01:53;;;;;;;0.38;0.38;;;;;;;;;;10258592;28;20039;-69
2021/12/30 10:06:56;;;;;;;0.20;0.20;;;;;;;;;;10259523;28;20049;-67
2021/12/30 10:12:01;;;;;;;0.20;0.20;;;;;;;;;;10254678;28;20035;-67
2021/12/30 10:17:17;;;;;;;0.28;0.28;;;;;;;;;;10246609;28;20802;-69
2021/12/30 10:22:21;;;;;;;0.57;0.20;;;;;;;;;;10258117;28;20035;-68
2021/12/30 10:27:27;;;;;;;0.43;0.35;;;;;;;;;;10255103;28;20182;-67
2021/12/30 10:32:30;;;;;;;0.75;0.50;;;;;;;;;;10254994;28;20031;-68
2021/12/30 10:37:33;;;;;;;0.30;0.30;;;;;;;;;;10254791;28;20134;-69
2021/12/30 10:42:38;;;;;;;0.65;0.50;;;;;;;;;;10271669;28;20036;-68
2021/12/30 10:47:50;;;;;;;0.38;0.38;;;;;;;;;;10256423;28;20043;-68
2021/12/30 10:52:54;;;;;;;3.05;0.35;;;;;;;;;;10250575;28;20058;-68
2021/12/30 10:57:59;;;;;;;0.47;0.40;;;;;;;;;;10249573;28;20078;-68
2021/12/30 11:03:17;;;;;;;1.98;0.38;;;;;;;;;;10268717;28;20043;-68
2021/12/30 11:08:26;;;;;;;0.45;0.40;;;;;;;;;;10259007;28;20134;-69
2021/12/30 11:13:30;;;;;;;0.40;0.40;;;;;;;;;;10252599;28;20071;-68
2021/12/30 11:18:40;;;;;;;0.95;0.40;;;;;;;;;;10257490;28;20024;-69
2021/12/30 11:23:44;;;;;;;0.43;0.38;;;;;;;;;;10253856;28;20086;-69
2021/12/30 11:28:48;;;;;;;0.30;0.30;;;;;;;;;;10248688;28;20435;-69
2021/12/30 11:33:51;;;;;;;0.47;0.47;;;;;;;;;;10245883;28;20692;-68
2021/12/30 11:38:55;;;;;;;0.28;0.20;;;;;;;;;;10249287;28;20035;-68
2021/12/30 11:43:59;;;;;;;0.22;0.13;;;;;;;;;;10251047;28;20066;-68
2021/12/30 11:49:03;;;;;;;1.25;0.28;;;;;;;;;;10255408;28;20059;-68
2021/12/30 11:54:20;;;;;;;0.77;0.38;;;;;;;;;;10260431;28;20049;-65
2021/12/30 11:59:38;;;;;;;0.35;0.35;;;;;;;;;;10258543;28;20288;-65
2021/12/30 12:04:42;;;;;;;0.38;0.35;;;;;;;;;;10258231;28;20035;-64
2021/12/30 12:09:45;;;;;;;0.68;0.40;;;;;;;;;;10255240;28;20069;-64
2021/12/30 12:15:06;;;;;;;2.83;0.40;;;;;;;;;;10256312;28;20050;-64
2021/12/30 12:20:14;;;;;;;0.20;0.20;;;;;;;;;;10257418;28;20074;-70
2021/12/30 12:25:20;;;;;;;1.75;0.22;;;;;;;;;;10256136;28;20039;-69
2021/12/30 12:30:29;;;;;;;0.68;0.32;;;;;;;;;;10255226;28;20447;-69
2021/12/30 12:35:34;;;;;;;0.30;0.30;;;;;;;;;;10257570;28;20027;-69
2021/12/30 12:40:42;;;;;;;0.10;0.10;;;;;;;;;;10257136;28;20043;-68
2021/12/30 12:45:55;;;;;;;0.30;0.30;;;;;;;;;;10266783;28;20032;-69
2021/12/30 12:51:01;;;;;;;0.50;0.50;;;;;;;;;;10261445;28;20554;-70
2021/12/30 12:56:07;;;;;;;1.67;1.00;;;;;;;;;;10267985;28;20039;-70
2021/12/30 13:01:12;;;;;;;0.93;0.75;;;;;;;;;;10260120;28;20043;-68
2021/12/30 13:06:16;;;;;;;4.05;0.90;;;;;;;;;;10257546;28;20095;-69
2021/12/30 13:11:33;;;;;;;0.40;0.40;;;;;;;;;;10262480;28;20050;-69
2021/12/30 13:16:40;;;;;;;0.40;0.40;;;;;;;;;;10248296;28;20031;-69
2021/12/30 13:21:48;;;;;;;1.10;0.40;;;;;;;;;;10256734;28;20098;-70
2021/12/30 13:26:51;;;;;;;0.40;0.40;;;;;;;;;;10249009;28;20039;-70
2021/12/30 13:32:03;;;;;;;0.38;0.38;;;;;;;;;;10254222;28;20126;-69
2021/12/30 13:37:10;;;;;;;0.30;0.30;;;;;;;;;;10261812;28;20039;-70
2021/12/30 13:42:15;;;;;;;0.65;0.38;;;;;;;;;;10258357;28;20046;-69
2021/12/30 13:47:24;;;;;;;1.30;0.60;;;;;;;;;;10271404;28;20034;-71
2021/12/30 13:52:29;;;;;;;1.35;0.40;;;;;;;;;;10265805;28;20049;-69
2021/12/30 13:57:32;;;;;;;0.30;0.30;;;;;;;;;;10258005;28;20024;-69
2021/12/30 14:02:37;;;;;;;0.30;0.30;;;;;;;;;;10255131;28;20077;-68
2021/12/30 14:07:43;;;;;;;0.45;0.45;;;;;;;;;;10249735;28;20062;-68
2021/12/30 14:12:57;;;;;;;0.47;0.40;;;;;;;;;;10248791;28;20041;-69
2021/12/30 14:18:02;;;;;;;1.02;0.50;;;;;;;;;;10257714;28;20370;-68
2021/12/30 14:23:05;;;;;;;0.32;0.32;;;;;;;;;;10256133;28;20043;-68
2021/12/30 14:28:19;;;;;;;0.40;0.40;;;;;;;;;;10264622;28;20365;-69
2021/12/30 14:33:28;;;;;;;0.73;0.38;;;;;;;;;;10271217;28;20450;-70
2021/12/30 14:38:31;;;;;;;0.40;0.20;;;;;;;;;;10261640;28;20040;-68
2021/12/30 14:43:34;;;;;;;0.60;0.40;;;;;;;;;;10253969;28;20039;-69
2021/12/30 14:48:39;;;;;;;1.02;0.77;;;;;;;;;;10251110;28;20040;-68
2021/12/30 14:53:43;;;;;;;1.88;0.73;;;;;;;;;;10253800;28;20118;-68
2021/12/30 14:58:47;;;;;;;0.47;0.47;;;;;;;;;;10251558;28;20098;-70
2021/12/30 15:03:51;;;;;;;0.40;0.40;;;;;;;;;;10245472;28;20595;-70
2021/12/30 15:08:54;;;;;;;0.45;0.43;;;;;;;;;;10250909;28;20028;-69
2021/12/30 15:13:58;;;;;;;0.98;0.60;;;;;;;;;;10247833;28;20180;-69
2021/12/30 15:19:02;;;;;;;1.45;0.82;;;;;;;;;;10270061;28;20356;-68
2021/12/30 15:24:06;;;;;;;1.77;0.50;;;;;;;;;;10263346;28;20073;-69
2021/12/30 15:29:09;;;;;;;0.50;0.50;;;;;;;;;;10261129;28;20039;-69
2021/12/30 15:34:14;;;;;;;1.27;0.70;;;;;;;;;;10265932;28;20039;-69
2021/12/30 15:39:17;;;;;;;0.82;0.40;;;;;;;;;;10260329;28;20448;-69
2021/12/30 15:44:21;;;;;;;2.45;0.57;;;;;;;;;;10261186;28;20118;-71
2021/12/30 15:49:25;;;;;;;1.08;0.60;;;;;;;;;;10261621;28;20031;-69
2021/12/30 15:54:28;;;;;;;1.38;0.60;;;;;;;;;;10251961;28;20047;-68
2021/12/30 15:59:32;;;;;;;0.30;0.30;;;;;;;;;;10256196;28;20087;-69
2021/12/30 16:04:36;;;;;;;0.55;0.55;;;;;;;;;;10263328;28;20038;-71
2021/12/30 16:09:39;;;;;;;1.00;0.60;;;;;;;;;;10270845;28;20038;-70
2021/12/30 16:14:42;;;;;;;1.30;0.57;;;;;;;;;;10255986;28;20031;-71
2021/12/30 16:19:47;;;;;;;0.83;0.47;;;;;;;;;;10259767;28;20041;-68
2021/12/30 16:24:50;;;;;;;0.50;0.50;;;;;;;;;;10273217;28;20062;-69
2021/12/30 16:29:53;;;;;;;0.93;0.45;;;;;;;;;;10255473;28;20595;-69
2021/12/30 16:35:03;;;;;;;0.38;0.38;;;;;;;;;;10254857;28;20541;-70
2021/12/30 16:40:07;;;;;;;0.93;0.77;;;;;;;;;;10266053;28;20059;-69
2021/12/30 16:45:11;;;;;;;1.08;0.60;;;;;;;;;;10251817;28;20057;-69
2021/12/30 16:50:16;;;;;;;0.43;0.40;;;;;;;;;;10272725;28;20131;-69
2021/12/30 16:55:19;;;;;;;4.90;0.60;;;;;;;;;;10265420;28;20369;-70
2021/12/30 17:00:22;;;;;;;0.75;0.55;;;;;;;;;;10258434;28;20075;-70
2021/12/30 17:05:27;;;;;;;1.23;0.80;;;;;;;;;;10262507;28;20105;-69
2021/12/30 17:10:30;;;;;;;0.95;0.73;;;;;;;;;;10261439;28;20054;-68
2021/12/30 17:15:34;;;;;;;0.47;0.32;;;;;;;;;;10268795;28;20061;-70
2021/12/30 17:20:39;;;;;;;0.47;0.45;;;;;;;;;;10280119;28;20047;-69
2021/12/30 17:25:42;;;;;;;1.35;0.60;;;;;;;;;;10280944;28;20090;-68
2021/12/30 17:30:50;;;;;;;0.85;0.80;;;;;;;;;;10279934;28;20039;-69
2021/12/30 17:35:55;;;;;;;1.02;0.77;;;;;;;;;;10251398;28;20122;-70
2021/12/30 17:40:59;;;;;;;1.25;0.77;;;;;;;;;;10279825;28;20039;-68
2021/12/30 17:46:02;;;;;;;0.70;0.43;;;;;;;;;;10295292;28;20027;-69
2021/12/30 17:51:07;;;;;;;1.83;0.73;;;;;;;;;;10285471;28;20285;-71
2021/12/30 17:56:11;;;;;;;3.05;1.00;;;;;;;;;;10256599;28;20039;-70
2021/12/30 18:01:14;;;;;;;0.60;0.60;;;;;;;;;;10261772;28;20034;-69
2021/12/30 18:06:24;;;;;;;1.42;0.90;;;;;;;;;;10247033;28;20047;-69
2021/12/30 18:11:29;;;;;;;0.77;0.77;;;;;;;;;;10257915;28;20043;-70
2021/12/30 18:16:34;;;;;;;0.68;0.60;;;;;;;;;;10250998;28;20073;-68
2021/12/30 18:21:39;;;;;;;1.23;0.70;;;;;;;;;;10258196;28;20055;-70
2021/12/30 18:26:42;;;;;;;1.92;0.80;;;;;;;;;;10251667;28;20094;-69
2021/12/30 18:31:46;;;;;;;1.00;0.47;;;;;;;;;;10269890;28;20058;-70
2021/12/30 18:36:51;;;;;;;0.93;0.82;;;;;;;;;;10261916;28;20354;-69
2021/12/30 18:41:55;;;;;;;0.77;0.73;;;;;;;;;;10256003;28;20149;-70
2021/12/30 18:46:59;;;;;;;1.38;0.65;;;;;;;;;;10254488;28;20038;-69
2021/12/30 18:52:04;;;;;;;1.23;1.00;;;;;;;;;;10256893;28;20089;-67
2021/12/30 18:57:07;;;;;;;2.97;1.10;;;;;;;;;;10254105;28;20035;-69
2021/12/30 19:02:11;;;;;;;2.43;1.30;;;;;;;;;;10254349;28;20126;-68
2021/12/30 19:07:16;;;;;;;1.13;0.73;;;;;;;;;;10248480;28;20381;-71
2021/12/30 19:12:20;;;;;;;1.55;0.70;;;;;;;;;;10264085;28;20039;-70
2021/12/30 19:17:23;;;;;;;1.73;0.70;;;;;;;;;;10250534;28;20565;-67
2021/12/30 19:22:27;;;;;;;1.47;1.03;;;;;;;;;;10250290;28;20084;-69
2021/12/30 19:27:31;;;;;;;1.20;0.90;;;;;;;;;;10245609;28;20381;-69
2021/12/30 19:32:35;;;;;;;1.80;0.90;;;;;;;;;;10256265;28;20062;-68
2021/12/30 19:37:40;;;;;;;1.08;0.73;;;;;;;;;;10252596;28;20051;-69
2021/12/30 19:42:44;;;;;;;0.98;0.68;;;;;;;;;;10251015;28;20054;-70
2021/12/30 19:47:47;;;;;;;0.60;0.60;;;;;;;;;;10253455;28;20035;-66
2021/12/30 19:52:52;;;;;;;1.20;0.60;;;;;;;;;;10251362;28;20538;-69
2021/12/30 19:57:55;;;;;;;2.25;0.90;;;;;;;;;;10253665;28;20074;-69
2021/12/30 20:02:59;;;;;;;2.75;0.65;;;;;;;;;;10249667;28;20050;-68
2021/12/30 20:08:04;;;;;;;0.63;0.50;;;;;;;;;;10252479;28;20066;-68
2021/12/30 20:13:07;;;;;;;0.60;0.60;;;;;;;;;;10256078;28;20122;-69
2021/12/30 20:18:10;;;;;;;1.73;0.70;;;;;;;;;;10253655;28;20039;-69
2021/12/30 20:23:15;;;;;;;0.52;0.52;;;;;;;;;;10270391;28;20050;-70
2021/12/30 20:28:18;;;;;;;0.80;0.60;;;;;;;;;;10263258;28;20043;-71
2021/12/30 20:33:22;;;;;;;0.87;0.47;;;;;;;;;;10255503;28;20045;-69
2021/12/30 20:38:27;;;;;;;1.48;0.70;;;;;;;;;;10256709;28;20294;-69
2021/12/30 20:43:30;;;;;;;1.33;0.90;;;;;;;;;;10253423;28;20499;-70
2021/12/30 20:48:33;;;;;;;0.63;0.55;;;;;;;;;;10264885;28;20043;-69
2021/12/30 20:53:38;;;;;;;2.30;0.70;;;;;;;;;;10263177;28;20035;-70
2021/12/30 20:58:41;;;;;;;1.67;0.80;;;;;;;;;;10254128;28;20472;-70
2021/12/30 21:03:44;;;;;;;1.40;0.80;;;;;;;;;;10259379;28;20124;-69
2021/12/30 21:08:48;;;;;;;1.83;0.60;;;;;;;;;;10271813;28;20310;-68
2021/12/30 21:13:54;;;;;;;0.85;0.45;;;;;;;;;;10256300;28;20094;-69
2021/12/30 21:19:00;;;;;;;0.90;0.40;;;;;;;;;;10257822;28;20039;-70
2021/12/30 21:24:05;;;;;;;1.17;0.47;;;;;;;;;;10251562;28;20047;-69
2021/12/30 21:29:08;;;;;;;0.80;0.35;;;;;;;;;;10266355;28;20475;-71
2021/12/30 21:34:11;;;;;;;0.60;0.60;;;;;;;;;;10261673;28;20050;-71
2021/12/30 21:39:16;;;;;;;0.20;0.20;;;;;;;;;;10253586;28;20210;-71
2021/12/30 21:44:19;;;;;;;0.45;0.45;;;;;;;;;;10250826;28;20310;-69
2021/12/30 21:49:22;;;;;;;0.50;0.47;;;;;;;;;;10259233;28;20039;-70
2021/12/30 21:54:28;;;;;;;0.68;0.35;;;;;;;;;;10251073;28;20133;-72
2021/12/30 21:59:31;;;;;;;0.93;0.70;;;;;;;;;;10254664;28;20039;-69
2021/12/30 22:04:34;;;;;;;2.57;0.60;;;;;;;;;;10263109;28;20309;-70
2021/12/30 22:09:38;;;;;;;0.63;0.60;;;;;;;;;;10258339;28;20348;-69
2021/12/30 22:14:42;;;;;;;0.88;0.50;;;;;;;;;;10253665;28;20370;-71
2021/12/30 22:19:45;;;;;;;0.63;0.60;;;;;;;;;;10257876;28;20031;-70
2021/12/30 22:24:49;;;;;;;3.47;0.70;;;;;;;;;;10263771;28;20579;-69
2021/12/30 22:29:52;;;;;;;0.80;0.60;;;;;;;;;;10250407;28;20031;-71
2021/12/30 22:34:56;;;;;;;0.98;0.90;;;;;;;;;;10251366;28;20035;-70
2021/12/30 22:40:00;;;;;;;1.73;0.97;;;;;;;;;;10251363;28;20208;-70
2021/12/30 22:45:04;;;;;;;1.90;0.93;;;;;;;;;;10248880;28;20043;-70
2021/12/30 22:50:09;;;;;;;6.40;2.67;;;;;;;;;;10256154;28;20027;-70
2021/12/30 22:55:14;;;;;;;1.90;1.08;;;;;;;;;;10257133;28;20470;-70
2021/12/30 23:00:18;;;;;;;3.08;1.17;;;;;;;;;;10249150;28;20502;-70
2021/12/30 23:05:21;;;;;;;1.02;0.80;;;;;;;;;;10247970;28;20499;-69
2021/12/30 23:10:26;;;;;;;1.55;1.10;;;;;;;;;;10253091;28;20053;-69
2021/12/30 23:15:29;;;;;;;1.20;1.10;;;;;;;;;;10301849;28;20042;-70
2021/12/30 23:20:36;;;;;;;1.92;1.15;;;;;;;;;;10295024;28;20074;-70
2021/12/30 23:25:41;;;;;;;2.65;1.42;;;;;;;;;;10254724;28;20530;-71
2021/12/30 23:30:45;;;;;;;1.55;1.00;;;;;;;;;;10260292;28;20134;-70
2021/12/30 23:35:48;;;;;;;1.17;0.93;;;;;;;;;;10248396;28;20534;-70
2021/12/30 23:40:52;;;;;;;1.67;1.10;;;;;;;;;;10249445;28;20058;-71
2021/12/30 23:45:56;;;;;;;1.67;1.02;;;;;;;;;;10262243;28;20046;-72
2021/12/30 23:50:59;;;;;;;1.75;0.88;;;;;;;;;;10261161;28;20044;-69
2021/12/30 23:56:03;;;;;;;1.37;1.00;;;;;;;;;;10259979;28;20098;-70
